Airfield :
LOGIN :

Register | Disclaimer

   EN    FR    IT 

 










Legend :    VFR   Marginal VFR   IFR   Intensive IFR   Very Intensive IFR
Visi :
Ceiling :
>= 8 km
>= 3000ft
5 to 8 km
1000 to 3000 ft
1500m to 5 km
500 to 1000 ft
800 to 1500m
200 to 500 ft
< 800m
< 200 ft
Symbols :   Thunderstorms  Fog  Heavy snow  Heavy precipitations  Wind > 20 kt
SIGMETs :     Misc.  Thunderstorms  Icing  Turbulence  Mountain Waves  Volcanic Ashes






- Airport Elevation : 15 ft
- IATA code : FCO


LIRF - Roma Leonardo da Vinci Fiumicino

CURRENT METAR :
  • 051720Z 08006KT 9999 SCT030 11/05 Q1022 NOSIG

EXPIRED METARs :
  • 051650Z 07007KT 9999 FEW030 11/06 Q1022 NOSIG
  • 051620Z 07005KT 9999 FEW030 12/05 Q1022 NOSIG
  • 051550Z 05004KT CAVOK 12/06 Q1022 NOSIG
  • 051520Z 07007KT CAVOK 13/04 Q1022 NOSIG
  • 051450Z 06007KT CAVOK 14/05 Q1021 NOSIG
  • 051420Z 07008KT CAVOK 14/05 Q1021 NOSIG

TAF TAF LIRF
Valid from the 05 at 12:00 until the 06 at 18:00 UTC


051100Z 0512/0618 08010KT 9999 FEW040
TEMPO 0520/0524 SHRA
TEMPO 0600/0612 4000 TSRA
BECMG 0610/0612 16012KT
TEMPO 0615/0618 4000 SHRA



MET'MAP, your aeronautical weather chart ! - Copyright ORBIFLY December 2007 - Disclaimer

ORBIFLY MET'MAP TEAM :

Programming & Development : Alexandra Zaïnal
Concept & original design : Baudouin d'Aumeries
Assistance for programming : Marc-Olivier Méhu
Technical & hardware support : Manuel Goepfert

Contact : metmap@orbifly.com




SOURCES & CREDITS :

   NOAA